Port Gibson, New York
Current Conditions -  °F | °C
As of 11:54 AM on Thursday 25 Dec 2014 (Local Time) from KROC Reporting Station
Overcast Overcast  
Wind Chill: 34°   Ceiling: 2500
Heat Index: 43°   Visibility: 10mi
Dew Point: 34°   Wind: 20mph
Humidity: 71%   Direction: 270°W
Pressure: 29.74"   Gusts: 35mph
Location:  43.03°N, 77.16°W
Report Text: KROC 251654Z 27017G30KT 10SM OVC025 06/01 A2974 RMK AO2 PK WND 26033/1644 SLP075 T00610011
Loading
Personal Weather Stations






























Interactive Weather Map New forecast layout! Learn more

10-Day Weather Forecast

Advertisements
Track Severe Weather on mobile